TRA16P EHRD-LICC
Flight info
| Callsign | TRA16P |
|---|---|
| Flight time | 2h 27m |
| Altitude | 37000 |
| Route | LUNIX Z739 MISGO DCT ASBON DCT TUSUK/N0444F390 DCT UTABA DCT BEMKI DCT ELMEM DCT GIRIS DCT SUMIR DCT UNUMU DCT MOPUV DCT PEVIR DCT NERAR DCT PELEN DCT UXUTA UXUTA1Q |
| Aircraft | B738/M-SDE2E3FGIJ1RWXYZ/LB1 |
Departure
| Time | 2026-04-28 11:34 |
|---|---|
| Airport | Rotterdam The Hague Airport (EHRD) |
Arrival
| Time | 2026-04-28 14:01 |
|---|---|
| Airport | Catania-Fontanarossa Airport (LICC) |
| Time | Latitude | Longitude | Altitude | Speed | Heading |
|---|---|---|---|---|---|
| 2026-04-28 11:12 | 51.95092 | 4.43426 | 0 ft | 0 kts | 327° |
| 2026-04-28 11:29 | 51.95102 | 4.43415 | 0 ft | 5 kts | 329° |
| 2026-04-28 11:30 | 51.95149 | 4.43450 | 0 ft | 10 kts | 54° |
| 2026-04-28 11:30 | 51.95234 | 4.43379 | 0 ft | 10 kts | 243° |
| 2026-04-28 11:30 | 51.95195 | 4.43280 | 0 ft | 10 kts | 237° |
| 2026-04-28 11:31 | 51.95158 | 4.43184 | 1 ft | 10 kts | 242° |
| 2026-04-28 11:31 | 51.95128 | 4.43085 | 0 ft | 10 kts | 244° |
| 2026-04-28 11:31 | 51.95108 | 4.42985 | 0 ft | 9 kts | 275° |
| 2026-04-28 11:31 | 51.95150 | 4.42909 | 0 ft | 9 kts | 326° |
| 2026-04-28 11:32 | 51.95204 | 4.42860 | 1 ft | 9 kts | 354° |
| 2026-04-28 11:32 | 51.95237 | 4.42893 | 1 ft | 7 kts | 53° |
| 2026-04-28 11:32 | 51.95243 | 4.42910 | 1 ft | 0 kts | 57° |
| 2026-04-28 11:32 | 51.95244 | 4.42911 | 1 ft | 0 kts | 57° |
| 2026-04-28 11:33 | 51.95245 | 4.42915 | 1 ft | 1 kts | 57° |
| 2026-04-28 11:33 | 51.95248 | 4.42923 | 1 ft | 2 kts | 57° |
| 2026-04-28 11:33 | 51.95308 | 4.43073 | 0 ft | 47 kts | 57° |
| 2026-04-28 11:33 | 51.95631 | 4.43880 | -1 ft | 121 kts | 57° |
| 2026-04-28 11:34 | 51.96176 | 4.45273 | 267 ft | 156 kts | 58° |
| 2026-04-28 11:34 | 51.96759 | 4.46798 | 1103 ft | 161 kts | 59° |
| 2026-04-28 11:34 | 51.97384 | 4.48388 | 1770 ft | 178 kts | 58° |
| 2026-04-28 11:34 | 51.98085 | 4.50111 | 2477 ft | 188 kts | 57° |
| 2026-04-28 11:35 | 51.98878 | 4.51879 | 3037 ft | 202 kts | 48° |
| 2026-04-28 11:35 | 51.99994 | 4.53470 | 3413 ft | 228 kts | 42° |
| 2026-04-28 11:35 | 52.01262 | 4.55224 | 3952 ft | 245 kts | 43° |
| 2026-04-28 11:35 | 52.02546 | 4.57050 | 4898 ft | 245 kts | 46° |
| 2026-04-28 11:36 | 52.03527 | 4.59275 | 5816 ft | 246 kts | 71° |
| 2026-04-28 11:36 | 52.03669 | 4.62022 | 6694 ft | 249 kts | 99° |
| 2026-04-28 11:36 | 52.03278 | 4.64797 | 7449 ft | 256 kts | 102° |
| 2026-04-28 11:36 | 52.02869 | 4.67634 | 8286 ft | 261 kts | 101° |
| 2026-04-28 11:37 | 52.02492 | 4.70518 | 9140 ft | 262 kts | 100° |
| 2026-04-28 11:37 | 52.02133 | 4.73438 | 9953 ft | 265 kts | 99° |
| 2026-04-28 11:37 | 52.01780 | 4.76418 | 10652 ft | 273 kts | 100° |
| 2026-04-28 11:37 | 52.01405 | 4.79460 | 11402 ft | 276 kts | 101° |
| 2026-04-28 11:38 | 52.01026 | 4.82543 | 12135 ft | 281 kts | 101° |
| 2026-04-28 11:38 | 52.00644 | 4.85643 | 12823 ft | 287 kts | 101° |
| 2026-04-28 11:38 | 52.00249 | 4.88876 | 13591 ft | 290 kts | 101° |
| 2026-04-28 11:38 | 51.99859 | 4.92102 | 14313 ft | 293 kts | 101° |
| 2026-04-28 11:39 | 51.99463 | 4.95373 | 14994 ft | 298 kts | 102° |
| 2026-04-28 11:39 | 51.99065 | 4.98660 | 15630 ft | 303 kts | 102° |
| 2026-04-28 11:39 | 51.98655 | 5.02042 | 16277 ft | 308 kts | 102° |
| 2026-04-28 11:39 | 51.98239 | 5.05470 | 16910 ft | 314 kts | 102° |
| 2026-04-28 11:40 | 51.97802 | 5.09059 | 17084 ft | 334 kts | 102° |
| 2026-04-28 11:40 | 51.97342 | 5.12822 | 17531 ft | 344 kts | 102° |
| 2026-04-28 11:40 | 51.96875 | 5.16646 | 18174 ft | 347 kts | 102° |
| 2026-04-28 11:40 | 51.96403 | 5.20505 | 18839 ft | 350 kts | 102° |
| 2026-04-28 11:41 | 51.95926 | 5.24394 | 19441 ft | 354 kts | 102° |
| 2026-04-28 11:41 | 51.95442 | 5.28327 | 20042 ft | 357 kts | 102° |
| 2026-04-28 11:41 | 51.94952 | 5.32301 | 20608 ft | 361 kts | 102° |
| 2026-04-28 11:41 | 51.94454 | 5.36318 | 21157 ft | 366 kts | 102° |
| 2026-04-28 11:42 | 51.93949 | 5.40376 | 21719 ft | 369 kts | 102° |
| 2026-04-28 11:42 | 51.93439 | 5.44466 | 22249 ft | 373 kts | 102° |
| 2026-04-28 11:42 | 51.92922 | 5.48604 | 22768 ft | 376 kts | 102° |
| 2026-04-28 11:42 | 51.92398 | 5.52783 | 23255 ft | 380 kts | 102° |
| 2026-04-28 11:43 | 51.91868 | 5.56997 | 23747 ft | 384 kts | 102° |
| 2026-04-28 11:43 | 51.91331 | 5.61252 | 24226 ft | 387 kts | 102° |
| 2026-04-28 11:43 | 51.90788 | 5.65539 | 24687 ft | 391 kts | 102° |
| 2026-04-28 11:43 | 51.90239 | 5.69863 | 25114 ft | 394 kts | 102° |
| 2026-04-28 11:44 | 51.89683 | 5.74235 | 25532 ft | 398 kts | 102° |
| 2026-04-28 11:44 | 51.89120 | 5.78643 | 25972 ft | 401 kts | 102° |
| 2026-04-28 11:44 | 51.88552 | 5.83073 | 26409 ft | 404 kts | 102° |
| 2026-04-28 11:44 | 51.87979 | 5.87538 | 26809 ft | 407 kts | 102° |
| 2026-04-28 11:45 | 51.87399 | 5.92042 | 27178 ft | 411 kts | 102° |
| 2026-04-28 11:45 | 51.86811 | 5.96583 | 27556 ft | 414 kts | 102° |
| 2026-04-28 11:45 | 51.86184 | 6.01136 | 27951 ft | 416 kts | 107° |
| 2026-04-28 11:45 | 51.85140 | 6.05511 | 28305 ft | 418 kts | 117° |
| 2026-04-28 11:46 | 51.83647 | 6.09550 | 28659 ft | 420 kts | 127° |
| 2026-04-28 11:46 | 51.81761 | 6.13161 | 29007 ft | 422 kts | 133° |
| 2026-04-28 11:46 | 51.79770 | 6.16662 | 29352 ft | 424 kts | 133° |
| 2026-04-28 11:46 | 51.77784 | 6.20204 | 29650 ft | 427 kts | 133° |
| 2026-04-28 11:47 | 51.75826 | 6.23755 | 29924 ft | 431 kts | 133° |
| 2026-04-28 11:47 | 51.73836 | 6.27389 | 30230 ft | 433 kts | 133° |
| 2026-04-28 11:47 | 51.71836 | 6.31045 | 30565 ft | 435 kts | 133° |
| 2026-04-28 11:47 | 51.69834 | 6.34704 | 30884 ft | 436 kts | 133° |
| 2026-04-28 11:48 | 51.67819 | 6.38378 | 31146 ft | 439 kts | 133° |
| 2026-04-28 11:48 | 51.65788 | 6.42071 | 31433 ft | 441 kts | 133° |
| 2026-04-28 11:48 | 51.63748 | 6.45772 | 31707 ft | 443 kts | 133° |
| 2026-04-28 11:48 | 51.61697 | 6.49487 | 31968 ft | 445 kts | 133° |
| 2026-04-28 11:49 | 51.59634 | 6.53218 | 32228 ft | 447 kts | 133° |
| 2026-04-28 11:49 | 51.57565 | 6.56955 | 32483 ft | 449 kts | 133° |
| 2026-04-28 11:49 | 51.55486 | 6.60709 | 32700 ft | 451 kts | 133° |
| 2026-04-28 11:49 | 51.53394 | 6.64477 | 32925 ft | 453 kts | 133° |
| 2026-04-28 11:50 | 51.51292 | 6.68261 | 33145 ft | 455 kts | 133° |
| 2026-04-28 11:50 | 51.49184 | 6.72050 | 33376 ft | 456 kts | 133° |
| 2026-04-28 11:50 | 51.47066 | 6.75852 | 33599 ft | 458 kts | 133° |
| 2026-04-28 11:50 | 51.44939 | 6.79665 | 33788 ft | 460 kts | 133° |
| 2026-04-28 11:51 | 51.42802 | 6.83486 | 34023 ft | 460 kts | 133° |
| 2026-04-28 11:51 | 51.40593 | 6.87178 | 34309 ft | 459 kts | 139° |
| 2026-04-28 11:51 | 51.38078 | 6.90289 | 34553 ft | 456 kts | 149° |
| 2026-04-28 11:51 | 51.35382 | 6.92978 | 34774 ft | 457 kts | 150° |
| 2026-04-28 11:52 | 51.32665 | 6.95638 | 34972 ft | 458 kts | 150° |
| 2026-04-28 11:52 | 51.29947 | 6.98299 | 35212 ft | 459 kts | 150° |
| 2026-04-28 11:52 | 51.27232 | 7.00976 | 35473 ft | 458 kts | 150° |
| 2026-04-28 11:52 | 51.24524 | 7.03664 | 35674 ft | 459 kts | 149° |
| 2026-04-28 11:53 | 51.21811 | 7.06368 | 35866 ft | 460 kts | 149° |
| 2026-04-28 11:53 | 51.19101 | 7.09076 | 36087 ft | 460 kts | 149° |
| 2026-04-28 11:53 | 51.16384 | 7.11791 | 36269 ft | 461 kts | 149° |
| 2026-04-28 11:53 | 51.13668 | 7.14504 | 36464 ft | 461 kts | 149° |
| 2026-04-28 11:54 | 51.10947 | 7.17214 | 36632 ft | 462 kts | 149° |
| 2026-04-28 11:54 | 51.08228 | 7.19916 | 36895 ft | 460 kts | 149° |
| 2026-04-28 11:54 | 51.05526 | 7.22600 | 37379 ft | 453 kts | 149° |
| 2026-04-28 11:54 | 51.02863 | 7.25241 | 37643 ft | 451 kts | 150° |
| 2026-04-28 11:55 | 50.97494 | 7.30555 | 37713 ft | 458 kts | 150° |
| 2026-04-28 11:55 | 50.94784 | 7.33231 | 37886 ft | 458 kts | 150° |
| 2026-04-28 11:55 | 50.92083 | 7.35897 | 38097 ft | 457 kts | 150° |
| 2026-04-28 11:56 | 50.89379 | 7.38559 | 38214 ft | 458 kts | 150° |
| 2026-04-28 11:56 | 50.86668 | 7.41225 | 38332 ft | 459 kts | 150° |
| 2026-04-28 11:56 | 50.83989 | 7.43855 | 38468 ft | 460 kts | 150° |
| 2026-04-28 11:56 | 50.81269 | 7.46522 | 38615 ft | 460 kts | 150° |
| 2026-04-28 11:57 | 50.78549 | 7.49187 | 38783 ft | 460 kts | 150° |
| 2026-04-28 11:57 | 50.75828 | 7.51850 | 38893 ft | 461 kts | 150° |
| 2026-04-28 11:57 | 50.70377 | 7.57215 | 39112 ft | 462 kts | 149° |
| 2026-04-28 11:58 | 50.64984 | 7.62799 | 39180 ft | 466 kts | 148° |
| 2026-04-28 11:58 | 50.59552 | 7.68470 | 39194 ft | 471 kts | 149° |
| 2026-04-28 11:59 | 50.54063 | 7.74157 | 39181 ft | 475 kts | 149° |
| 2026-04-28 11:59 | 50.48525 | 7.79856 | 39180 ft | 477 kts | 149° |
| 2026-04-28 12:00 | 50.42967 | 7.85553 | 39169 ft | 476 kts | 149° |
| 2026-04-28 12:00 | 50.37456 | 7.91189 | 39164 ft | 469 kts | 149° |
| 2026-04-28 12:01 | 50.32015 | 7.96737 | 39176 ft | 466 kts | 150° |
| 2026-04-28 12:01 | 50.26593 | 8.02247 | 39175 ft | 465 kts | 150° |
| 2026-04-28 12:02 | 50.21176 | 8.07741 | 39174 ft | 464 kts | 150° |
| 2026-04-28 12:02 | 50.15750 | 8.13230 | 39176 ft | 465 kts | 150° |
| 2026-04-28 12:03 | 50.10139 | 8.18178 | 39173 ft | 462 kts | 158° |
| 2026-04-28 12:03 | 50.04283 | 8.22329 | 39167 ft | 463 kts | 159° |
| 2026-04-28 12:04 | 49.98396 | 8.26438 | 39168 ft | 465 kts | 159° |
| 2026-04-28 12:04 | 49.92505 | 8.30616 | 39168 ft | 466 kts | 159° |
| 2026-04-28 12:05 | 49.86599 | 8.34842 | 39161 ft | 468 kts | 158° |
| 2026-04-28 12:05 | 49.80714 | 8.39055 | 39156 ft | 470 kts | 159° |
| 2026-04-28 12:06 | 49.74738 | 8.43324 | 39134 ft | 471 kts | 159° |
| 2026-04-28 12:06 | 49.68787 | 8.47562 | 39131 ft | 471 kts | 159° |
| 2026-04-28 12:07 | 49.62842 | 8.51782 | 39115 ft | 470 kts | 159° |
| 2026-04-28 12:07 | 49.56905 | 8.55984 | 39108 ft | 469 kts | 159° |
| 2026-04-28 12:08 | 49.51023 | 8.60137 | 39106 ft | 467 kts | 159° |
| 2026-04-28 12:08 | 49.45119 | 8.64291 | 39100 ft | 466 kts | 159° |
| 2026-04-28 12:09 | 49.39224 | 8.68428 | 39101 ft | 465 kts | 159° |
| 2026-04-28 12:09 | 49.33340 | 8.72550 | 39104 ft | 464 kts | 159° |
| 2026-04-28 12:10 | 49.27469 | 8.76650 | 39100 ft | 463 kts | 159° |
| 2026-04-28 12:10 | 49.21601 | 8.80736 | 39097 ft | 463 kts | 160° |
| 2026-04-28 12:11 | 49.15734 | 8.84812 | 39093 ft | 463 kts | 160° |
| 2026-04-28 12:11 | 49.09864 | 8.88880 | 39092 ft | 463 kts | 160° |
| 2026-04-28 12:12 | 49.03994 | 8.92936 | 39095 ft | 464 kts | 160° |
| 2026-04-28 12:12 | 48.98116 | 8.96988 | 39094 ft | 464 kts | 160° |
| 2026-04-28 12:13 | 48.92226 | 9.01036 | 39088 ft | 465 kts | 160° |
| 2026-04-28 12:13 | 48.86332 | 9.05081 | 39085 ft | 465 kts | 160° |
| 2026-04-28 12:14 | 48.80430 | 9.09117 | 39085 ft | 465 kts | 160° |
| 2026-04-28 12:14 | 48.74524 | 9.13147 | 39078 ft | 465 kts | 160° |
| 2026-04-28 12:15 | 48.68652 | 9.17143 | 39081 ft | 466 kts | 160° |
| 2026-04-28 12:15 | 48.62738 | 9.21156 | 39073 ft | 466 kts | 160° |
| 2026-04-28 12:16 | 48.56818 | 9.25163 | 39072 ft | 466 kts | 160° |
| 2026-04-28 12:16 | 48.50898 | 9.29163 | 39082 ft | 466 kts | 160° |
| 2026-04-28 12:17 | 48.44976 | 9.33151 | 39083 ft | 466 kts | 160° |
| 2026-04-28 12:17 | 48.39056 | 9.37128 | 39081 ft | 465 kts | 161° |
| 2026-04-28 12:18 | 48.33142 | 9.41092 | 39091 ft | 465 kts | 161° |
| 2026-04-28 12:18 | 48.27233 | 9.45058 | 39087 ft | 466 kts | 159° |
| 2026-04-28 12:19 | 48.21793 | 9.50480 | 39104 ft | 474 kts | 144° |
| 2026-04-28 12:19 | 48.16730 | 9.56840 | 39094 ft | 475 kts | 144° |
| 2026-04-28 12:20 | 48.11659 | 9.63186 | 39095 ft | 475 kts | 144° |
| 2026-04-28 12:20 | 48.07423 | 9.68406 | 39103 ft | 475 kts | 145° |
| 2026-04-28 12:21 | 48.02306 | 9.74658 | 39103 ft | 475 kts | 145° |
| 2026-04-28 12:21 | 47.97181 | 9.80898 | 39099 ft | 476 kts | 145° |
| 2026-04-28 12:22 | 47.92046 | 9.87133 | 39092 ft | 476 kts | 145° |
| 2026-04-28 12:22 | 47.86906 | 9.93362 | 39093 ft | 476 kts | 145° |
| 2026-04-28 12:23 | 47.81760 | 9.99580 | 39099 ft | 476 kts | 145° |
| 2026-04-28 12:23 | 47.76612 | 10.05788 | 39103 ft | 476 kts | 145° |
| 2026-04-28 12:24 | 47.71461 | 10.11982 | 39090 ft | 477 kts | 145° |
| 2026-04-28 12:24 | 47.66304 | 10.18166 | 39095 ft | 477 kts | 145° |
| 2026-04-28 12:25 | 47.61142 | 10.24343 | 39090 ft | 477 kts | 145° |
| 2026-04-28 12:25 | 47.55974 | 10.30502 | 39097 ft | 477 kts | 146° |
| 2026-04-28 12:26 | 47.50578 | 10.36012 | 39088 ft | 473 kts | 152° |
| 2026-04-28 12:26 | 47.45029 | 10.41244 | 39083 ft | 472 kts | 152° |
| 2026-04-28 12:27 | 47.39524 | 10.46522 | 39096 ft | 472 kts | 151° |
| 2026-04-28 12:27 | 47.34042 | 10.51839 | 39111 ft | 471 kts | 151° |
| 2026-04-28 12:28 | 47.28538 | 10.57089 | 39096 ft | 470 kts | 155° |
| 2026-04-28 12:28 | 47.22628 | 10.60992 | 39111 ft | 464 kts | 163° |
| 2026-04-28 12:29 | 47.13620 | 10.66309 | 39103 ft | 466 kts | 163° |
| 2026-04-28 12:30 | 47.07614 | 10.69941 | 39094 ft | 468 kts | 162° |
| 2026-04-28 12:30 | 47.01591 | 10.73616 | 39070 ft | 469 kts | 162° |
| 2026-04-28 12:31 | 46.95561 | 10.77288 | 39084 ft | 470 kts | 162° |
| 2026-04-28 12:31 | 46.89509 | 10.80961 | 39084 ft | 471 kts | 162° |
| 2026-04-28 12:32 | 46.83456 | 10.84623 | 39096 ft | 471 kts | 162° |
| 2026-04-28 12:32 | 46.77412 | 10.88313 | 39081 ft | 472 kts | 159° |
| 2026-04-28 12:33 | 46.71743 | 10.93247 | 39081 ft | 475 kts | 150° |
| 2026-04-28 12:33 | 46.66225 | 10.98572 | 39080 ft | 476 kts | 150° |
| 2026-04-28 12:34 | 46.60676 | 11.03841 | 39081 ft | 476 kts | 151° |
| 2026-04-28 12:34 | 46.55137 | 11.09007 | 39077 ft | 476 kts | 152° |
| 2026-04-28 12:35 | 46.49558 | 11.14178 | 39068 ft | 476 kts | 152° |
| 2026-04-28 12:35 | 46.43979 | 11.19341 | 39064 ft | 476 kts | 152° |
| 2026-04-28 12:36 | 46.38399 | 11.24496 | 39055 ft | 476 kts | 152° |
| 2026-04-28 12:36 | 46.32815 | 11.29644 | 39070 ft | 475 kts | 152° |
| 2026-04-28 12:37 | 46.27238 | 11.34760 | 39087 ft | 474 kts | 153° |
| 2026-04-28 12:37 | 46.21298 | 11.38539 | 39135 ft | 464 kts | 166° |
| 2026-04-28 12:38 | 46.15177 | 11.41516 | 39127 ft | 464 kts | 166° |
| 2026-04-28 12:38 | 46.09059 | 11.44502 | 39132 ft | 464 kts | 166° |
| 2026-04-28 12:39 | 46.02943 | 11.47537 | 39129 ft | 465 kts | 166° |
| 2026-04-28 12:39 | 45.96834 | 11.50593 | 39124 ft | 466 kts | 165° |
| 2026-04-28 12:40 | 45.90713 | 11.53654 | 39130 ft | 465 kts | 165° |
| 2026-04-28 12:40 | 45.84600 | 11.56702 | 39129 ft | 466 kts | 165° |
| 2026-04-28 12:41 | 45.78474 | 11.59746 | 39112 ft | 466 kts | 165° |
| 2026-04-28 12:41 | 45.72341 | 11.62785 | 39111 ft | 466 kts | 165° |
| 2026-04-28 12:42 | 45.66210 | 11.65817 | 39096 ft | 466 kts | 165° |
| 2026-04-28 12:42 | 45.60072 | 11.68846 | 39060 ft | 468 kts | 165° |
| 2026-04-28 12:43 | 45.53923 | 11.71873 | 39054 ft | 467 kts | 166° |
| 2026-04-28 12:43 | 45.47785 | 11.74888 | 39053 ft | 467 kts | 166° |
| 2026-04-28 12:44 | 45.41641 | 11.77899 | 39047 ft | 466 kts | 166° |
| 2026-04-28 12:44 | 45.35548 | 11.80877 | 39046 ft | 466 kts | 166° |
| 2026-04-28 12:45 | 45.29424 | 11.83866 | 39044 ft | 465 kts | 166° |
| 2026-04-28 12:45 | 45.23306 | 11.86844 | 39047 ft | 464 kts | 166° |
| 2026-04-28 12:46 | 45.17195 | 11.89812 | 39045 ft | 464 kts | 166° |
| 2026-04-28 12:46 | 45.11090 | 11.92770 | 39048 ft | 463 kts | 166° |
| 2026-04-28 12:47 | 45.04989 | 11.95718 | 39045 ft | 463 kts | 166° |
| 2026-04-28 12:47 | 44.98898 | 11.98654 | 39045 ft | 463 kts | 166° |
| 2026-04-28 12:48 | 44.92798 | 12.01589 | 39044 ft | 463 kts | 166° |
| 2026-04-28 12:48 | 44.86700 | 12.04515 | 39045 ft | 463 kts | 166° |
| 2026-04-28 12:49 | 44.80607 | 12.07436 | 39047 ft | 463 kts | 166° |
| 2026-04-28 12:49 | 44.74513 | 12.10349 | 39047 ft | 463 kts | 166° |
| 2026-04-28 12:50 | 44.68417 | 12.13256 | 39047 ft | 463 kts | 166° |
| 2026-04-28 12:50 | 44.62318 | 12.16158 | 39048 ft | 463 kts | 166° |
| 2026-04-28 12:51 | 44.56219 | 12.19056 | 39044 ft | 463 kts | 166° |
| 2026-04-28 12:51 | 44.50119 | 12.21947 | 39049 ft | 463 kts | 166° |
| 2026-04-28 12:52 | 44.44018 | 12.24831 | 39046 ft | 463 kts | 166° |
| 2026-04-28 12:52 | 44.37920 | 12.27706 | 39046 ft | 463 kts | 166° |
| 2026-04-28 12:53 | 44.31861 | 12.30557 | 39044 ft | 462 kts | 166° |
| 2026-04-28 12:53 | 44.25765 | 12.33419 | 39048 ft | 462 kts | 166° |
| 2026-04-28 12:54 | 44.19665 | 12.36277 | 39046 ft | 462 kts | 166° |
| 2026-04-28 12:54 | 44.13562 | 12.39130 | 39045 ft | 463 kts | 166° |
| 2026-04-28 12:55 | 44.07459 | 12.41978 | 39047 ft | 463 kts | 166° |
| 2026-04-28 12:55 | 44.01355 | 12.44819 | 39046 ft | 462 kts | 166° |
| 2026-04-28 12:56 | 43.95252 | 12.47652 | 39046 ft | 463 kts | 166° |
| 2026-04-28 12:56 | 43.89144 | 12.50485 | 39054 ft | 463 kts | 166° |
| 2026-04-28 12:57 | 43.83035 | 12.53311 | 39049 ft | 463 kts | 166° |
| 2026-04-28 12:57 | 43.76930 | 12.56128 | 39043 ft | 463 kts | 166° |
| 2026-04-28 12:58 | 43.70824 | 12.58941 | 39050 ft | 463 kts | 166° |
| 2026-04-28 12:58 | 43.64718 | 12.61747 | 39042 ft | 462 kts | 166° |
| 2026-04-28 12:59 | 43.58617 | 12.64544 | 39048 ft | 462 kts | 166° |
| 2026-04-28 12:59 | 43.52520 | 12.67335 | 39047 ft | 461 kts | 166° |
| 2026-04-28 13:00 | 43.46431 | 12.70116 | 39048 ft | 461 kts | 165° |
| 2026-04-28 13:00 | 43.40336 | 12.72872 | 39044 ft | 461 kts | 166° |
| 2026-04-28 13:01 | 43.34209 | 12.75463 | 39046 ft | 460 kts | 167° |
| 2026-04-28 13:01 | 43.28080 | 12.78005 | 39062 ft | 460 kts | 167° |
| 2026-04-28 13:02 | 43.21949 | 12.80556 | 39058 ft | 461 kts | 167° |
| 2026-04-28 13:02 | 43.15810 | 12.83121 | 39049 ft | 462 kts | 167° |
| 2026-04-28 13:03 | 43.09670 | 12.85685 | 39055 ft | 461 kts | 167° |
| 2026-04-28 13:03 | 43.03536 | 12.88243 | 39046 ft | 461 kts | 167° |
| 2026-04-28 13:04 | 42.97442 | 12.90781 | 39058 ft | 461 kts | 167° |
| 2026-04-28 13:04 | 42.91305 | 12.93329 | 39047 ft | 461 kts | 166° |
| 2026-04-28 13:05 | 42.85172 | 12.95867 | 39053 ft | 461 kts | 167° |
| 2026-04-28 13:05 | 42.79039 | 12.98402 | 39052 ft | 461 kts | 167° |
| 2026-04-28 13:06 | 42.72900 | 13.00934 | 39063 ft | 460 kts | 166° |
| 2026-04-28 13:06 | 42.66774 | 13.03455 | 39059 ft | 460 kts | 166° |
| 2026-04-28 13:07 | 42.60648 | 13.05972 | 39062 ft | 460 kts | 166° |
| 2026-04-28 13:07 | 42.54524 | 13.08483 | 39069 ft | 460 kts | 166° |
| 2026-04-28 13:08 | 42.48396 | 13.10989 | 39083 ft | 460 kts | 166° |
| 2026-04-28 13:08 | 42.42259 | 13.13495 | 39065 ft | 461 kts | 166° |
| 2026-04-28 13:09 | 42.37114 | 13.15594 | 39081 ft | 461 kts | 166° |
| 2026-04-28 13:09 | 42.31011 | 13.18075 | 39072 ft | 461 kts | 166° |
| 2026-04-28 13:10 | 42.24878 | 13.20566 | 39075 ft | 460 kts | 166° |
| 2026-04-28 13:10 | 42.18737 | 13.23054 | 39076 ft | 461 kts | 166° |
| 2026-04-28 13:11 | 42.12583 | 13.25542 | 39058 ft | 462 kts | 166° |
| 2026-04-28 13:11 | 42.06428 | 13.28026 | 39068 ft | 462 kts | 166° |
| 2026-04-28 13:12 | 42.00277 | 13.30538 | 39065 ft | 462 kts | 166° |
| 2026-04-28 13:12 | 41.94130 | 13.33070 | 39055 ft | 462 kts | 166° |
| 2026-04-28 13:13 | 41.87979 | 13.35597 | 39059 ft | 462 kts | 166° |
| 2026-04-28 13:13 | 41.81824 | 13.38119 | 39044 ft | 462 kts | 166° |
| 2026-04-28 13:14 | 41.75676 | 13.40629 | 39058 ft | 462 kts | 166° |
| 2026-04-28 13:14 | 41.69532 | 13.43131 | 39048 ft | 461 kts | 166° |
| 2026-04-28 13:15 | 41.63391 | 13.45629 | 39044 ft | 461 kts | 166° |
| 2026-04-28 13:15 | 41.57251 | 13.48122 | 39051 ft | 461 kts | 166° |
| 2026-04-28 13:16 | 41.51116 | 13.50609 | 39056 ft | 461 kts | 166° |
| 2026-04-28 13:16 | 41.44976 | 13.53092 | 39051 ft | 461 kts | 166° |
| 2026-04-28 13:17 | 41.38845 | 13.55566 | 39052 ft | 460 kts | 166° |
| 2026-04-28 13:17 | 41.32718 | 13.58033 | 39052 ft | 460 kts | 166° |
| 2026-04-28 13:18 | 41.26586 | 13.60498 | 39052 ft | 460 kts | 166° |
| 2026-04-28 13:18 | 41.20460 | 13.62956 | 39061 ft | 460 kts | 166° |
| 2026-04-28 13:19 | 41.14336 | 13.65408 | 39064 ft | 459 kts | 166° |
| 2026-04-28 13:19 | 41.08217 | 13.67854 | 39066 ft | 459 kts | 166° |
| 2026-04-28 13:20 | 41.02097 | 13.70293 | 39066 ft | 459 kts | 166° |
| 2026-04-28 13:20 | 40.95972 | 13.72731 | 39074 ft | 459 kts | 166° |
| 2026-04-28 13:21 | 40.89850 | 13.75163 | 39075 ft | 459 kts | 166° |
| 2026-04-28 13:21 | 40.83724 | 13.77591 | 39072 ft | 459 kts | 166° |
| 2026-04-28 13:22 | 40.77599 | 13.80015 | 39075 ft | 460 kts | 166° |
| 2026-04-28 13:22 | 40.71471 | 13.82433 | 39072 ft | 460 kts | 166° |
| 2026-04-28 13:23 | 40.65339 | 13.84853 | 39074 ft | 460 kts | 166° |
| 2026-04-28 13:23 | 40.59207 | 13.87266 | 39076 ft | 460 kts | 167° |
| 2026-04-28 13:24 | 40.53068 | 13.89677 | 39072 ft | 460 kts | 167° |
| 2026-04-28 13:24 | 40.46933 | 13.92083 | 39077 ft | 460 kts | 167° |
| 2026-04-28 13:25 | 40.40796 | 13.94484 | 39072 ft | 460 kts | 167° |
| 2026-04-28 13:25 | 40.34700 | 13.96865 | 39072 ft | 460 kts | 167° |
| 2026-04-28 13:26 | 40.28572 | 13.99252 | 39084 ft | 459 kts | 167° |
| 2026-04-28 13:26 | 40.22379 | 14.01194 | 39086 ft | 457 kts | 171° |
| 2026-04-28 13:27 | 40.16159 | 14.02874 | 39085 ft | 456 kts | 172° |
| 2026-04-28 13:27 | 40.09940 | 14.04567 | 39084 ft | 456 kts | 172° |
| 2026-04-28 13:28 | 40.03730 | 14.06298 | 39084 ft | 457 kts | 171° |
| 2026-04-28 13:28 | 39.97520 | 14.08044 | 39082 ft | 457 kts | 171° |
| 2026-04-28 13:29 | 39.91310 | 14.09787 | 39093 ft | 456 kts | 171° |
| 2026-04-28 13:29 | 39.85096 | 14.11525 | 39091 ft | 457 kts | 171° |
| 2026-04-28 13:30 | 39.78881 | 14.13263 | 39092 ft | 457 kts | 171° |
| 2026-04-28 13:30 | 39.72663 | 14.14998 | 39081 ft | 457 kts | 172° |
| 2026-04-28 13:31 | 39.63293 | 14.17601 | 38413 ft | 464 kts | 171° |
| 2026-04-28 13:31 | 39.60143 | 14.18476 | 37846 ft | 462 kts | 171° |
| 2026-04-28 13:31 | 39.57008 | 14.19347 | 37290 ft | 460 kts | 171° |
| 2026-04-28 13:32 | 39.53885 | 14.20215 | 36719 ft | 459 kts | 171° |
| 2026-04-28 13:32 | 39.50762 | 14.21081 | 36228 ft | 456 kts | 171° |
| 2026-04-28 13:32 | 39.47677 | 14.21935 | 35809 ft | 452 kts | 171° |
| 2026-04-28 13:32 | 39.44614 | 14.22782 | 35366 ft | 448 kts | 171° |
| 2026-04-28 13:33 | 39.41577 | 14.23621 | 34945 ft | 445 kts | 171° |
| 2026-04-28 13:33 | 39.38563 | 14.24452 | 34524 ft | 441 kts | 171° |
| 2026-04-28 13:33 | 39.35572 | 14.25277 | 34103 ft | 438 kts | 171° |
| 2026-04-28 13:33 | 39.32605 | 14.26094 | 33689 ft | 435 kts | 171° |
| 2026-04-28 13:34 | 39.29652 | 14.26886 | 33268 ft | 431 kts | 172° |
| 2026-04-28 13:34 | 39.26708 | 14.27537 | 32855 ft | 427 kts | 174° |
| 2026-04-28 13:34 | 39.23781 | 14.28105 | 32449 ft | 424 kts | 175° |
| 2026-04-28 13:34 | 39.20872 | 14.28642 | 32044 ft | 421 kts | 175° |
| 2026-04-28 13:35 | 39.17980 | 14.29175 | 31643 ft | 418 kts | 175° |
| 2026-04-28 13:35 | 39.15114 | 14.29710 | 31247 ft | 415 kts | 175° |
| 2026-04-28 13:35 | 39.12268 | 14.30249 | 30852 ft | 412 kts | 174° |
| 2026-04-28 13:35 | 39.09440 | 14.30792 | 30459 ft | 409 kts | 174° |
| 2026-04-28 13:36 | 39.06637 | 14.31333 | 30070 ft | 406 kts | 174° |
| 2026-04-28 13:36 | 39.03849 | 14.31874 | 29680 ft | 403 kts | 174° |
| 2026-04-28 13:36 | 39.01086 | 14.32411 | 29282 ft | 400 kts | 174° |
| 2026-04-28 13:36 | 38.98343 | 14.32944 | 28882 ft | 397 kts | 174° |
| 2026-04-28 13:37 | 38.95619 | 14.33472 | 28485 ft | 394 kts | 174° |
| 2026-04-28 13:37 | 38.92912 | 14.33997 | 28088 ft | 392 kts | 174° |
| 2026-04-28 13:37 | 38.90231 | 14.34517 | 27698 ft | 389 kts | 174° |
| 2026-04-28 13:37 | 38.87558 | 14.35034 | 27308 ft | 386 kts | 175° |
| 2026-04-28 13:38 | 38.84909 | 14.35545 | 26922 ft | 384 kts | 174° |
| 2026-04-28 13:38 | 38.82275 | 14.36054 | 26539 ft | 381 kts | 174° |
| 2026-04-28 13:38 | 38.79662 | 14.36558 | 26152 ft | 378 kts | 174° |
| 2026-04-28 13:38 | 38.77068 | 14.37058 | 25775 ft | 376 kts | 174° |
| 2026-04-28 13:39 | 38.74492 | 14.37554 | 25398 ft | 373 kts | 174° |
| 2026-04-28 13:39 | 38.71929 | 14.38047 | 25023 ft | 371 kts | 174° |
| 2026-04-28 13:39 | 38.69391 | 14.38535 | 24639 ft | 368 kts | 174° |
| 2026-04-28 13:39 | 38.66861 | 14.39021 | 24269 ft | 366 kts | 174° |
| 2026-04-28 13:40 | 38.64348 | 14.39503 | 23897 ft | 364 kts | 174° |
| 2026-04-28 13:40 | 38.61853 | 14.39982 | 23525 ft | 361 kts | 174° |
| 2026-04-28 13:40 | 38.59375 | 14.40458 | 23162 ft | 359 kts | 174° |
| 2026-04-28 13:40 | 38.56911 | 14.40929 | 22792 ft | 357 kts | 174° |
| 2026-04-28 13:41 | 38.54461 | 14.41398 | 22429 ft | 355 kts | 174° |
| 2026-04-28 13:41 | 38.52029 | 14.41864 | 22070 ft | 352 kts | 174° |
| 2026-04-28 13:41 | 38.49612 | 14.42325 | 21712 ft | 350 kts | 174° |
| 2026-04-28 13:41 | 38.47206 | 14.42785 | 21354 ft | 348 kts | 174° |
| 2026-04-28 13:42 | 38.44820 | 14.43242 | 20994 ft | 346 kts | 174° |
| 2026-04-28 13:42 | 38.42450 | 14.43695 | 20636 ft | 343 kts | 174° |
| 2026-04-28 13:42 | 38.40094 | 14.44144 | 20284 ft | 341 kts | 174° |
| 2026-04-28 13:42 | 38.37785 | 14.44583 | 19938 ft | 339 kts | 174° |
| 2026-04-28 13:43 | 38.35460 | 14.45027 | 19587 ft | 337 kts | 174° |
| 2026-04-28 13:43 | 38.33171 | 14.45636 | 19233 ft | 337 kts | 165° |
| 2026-04-28 13:43 | 38.31002 | 14.46769 | 18915 ft | 336 kts | 158° |
| 2026-04-28 13:43 | 38.28894 | 14.48028 | 18572 ft | 334 kts | 156° |
| 2026-04-28 13:44 | 38.26800 | 14.49298 | 18227 ft | 332 kts | 156° |
| 2026-04-28 13:44 | 38.24719 | 14.50558 | 17884 ft | 330 kts | 156° |
| 2026-04-28 13:44 | 38.22646 | 14.51804 | 17540 ft | 328 kts | 157° |
| 2026-04-28 13:44 | 38.20583 | 14.53034 | 17197 ft | 327 kts | 157° |
| 2026-04-28 13:45 | 38.18529 | 14.54255 | 16849 ft | 325 kts | 157° |
| 2026-04-28 13:45 | 38.16483 | 14.55467 | 16515 ft | 324 kts | 157° |
| 2026-04-28 13:45 | 38.14446 | 14.56672 | 16174 ft | 322 kts | 157° |
| 2026-04-28 13:45 | 38.12422 | 14.57867 | 15839 ft | 320 kts | 157° |
| 2026-04-28 13:46 | 38.10406 | 14.59056 | 15506 ft | 319 kts | 157° |
| 2026-04-28 13:46 | 38.08399 | 14.60239 | 15170 ft | 317 kts | 157° |
| 2026-04-28 13:46 | 38.06401 | 14.61416 | 14834 ft | 316 kts | 157° |
| 2026-04-28 13:46 | 38.04410 | 14.62588 | 14516 ft | 315 kts | 157° |
| 2026-04-28 13:47 | 38.02432 | 14.63752 | 14183 ft | 314 kts | 157° |
| 2026-04-28 13:47 | 38.00453 | 14.64915 | 13814 ft | 314 kts | 157° |
| 2026-04-28 13:47 | 37.98472 | 14.66080 | 13495 ft | 313 kts | 157° |
| 2026-04-28 13:47 | 37.96501 | 14.67238 | 13162 ft | 312 kts | 157° |
| 2026-04-28 13:48 | 37.94535 | 14.68393 | 12823 ft | 311 kts | 157° |
| 2026-04-28 13:48 | 37.92601 | 14.69593 | 12482 ft | 311 kts | 153° |
| 2026-04-28 13:48 | 37.90736 | 14.70987 | 12128 ft | 311 kts | 150° |
| 2026-04-28 13:48 | 37.88902 | 14.72424 | 11790 ft | 309 kts | 150° |
| 2026-04-28 13:49 | 37.87079 | 14.73850 | 11463 ft | 307 kts | 150° |
| 2026-04-28 13:49 | 37.85262 | 14.75256 | 11132 ft | 306 kts | 150° |
| 2026-04-28 13:49 | 37.83445 | 14.76649 | 10802 ft | 304 kts | 150° |
| 2026-04-28 13:49 | 37.81639 | 14.78024 | 10497 ft | 302 kts | 150° |
| 2026-04-28 13:50 | 37.79846 | 14.79386 | 10214 ft | 298 kts | 150° |
| 2026-04-28 13:50 | 37.78073 | 14.80666 | 10061 ft | 290 kts | 159° |
| 2026-04-28 13:50 | 37.76126 | 14.80964 | 9765 ft | 282 kts | 194° |
| 2026-04-28 13:50 | 37.74441 | 14.79850 | 9487 ft | 275 kts | 225° |
| 2026-04-28 13:51 | 37.73202 | 14.78033 | 9212 ft | 271 kts | 231° |
| 2026-04-28 13:51 | 37.71997 | 14.76204 | 8892 ft | 271 kts | 229° |
| 2026-04-28 13:51 | 37.70704 | 14.74467 | 8594 ft | 271 kts | 225° |
| 2026-04-28 13:51 | 37.69324 | 14.72858 | 8303 ft | 269 kts | 220° |
| 2026-04-28 13:52 | 37.67855 | 14.71403 | 8012 ft | 268 kts | 216° |
| 2026-04-28 13:52 | 37.66850 | 14.70503 | 7808 ft | 268 kts | 214° |
| 2026-04-28 13:52 | 37.64785 | 14.68810 | 7410 ft | 267 kts | 211° |
| 2026-04-28 13:52 | 37.63183 | 14.67634 | 7093 ft | 267 kts | 209° |
| 2026-04-28 13:53 | 37.61529 | 14.66561 | 6788 ft | 267 kts | 205° |
| 2026-04-28 13:53 | 37.59832 | 14.65610 | 6450 ft | 268 kts | 202° |
| 2026-04-28 13:53 | 37.58096 | 14.64762 | 6161 ft | 267 kts | 199° |
| 2026-04-28 13:53 | 37.56334 | 14.64041 | 5885 ft | 265 kts | 196° |
| 2026-04-28 13:54 | 37.55157 | 14.63650 | 5693 ft | 264 kts | 189° |
| 2026-04-28 13:54 | 37.53389 | 14.63903 | 5532 ft | 255 kts | 153° |
| 2026-04-28 13:54 | 37.52037 | 14.65266 | 5416 ft | 247 kts | 131° |
| 2026-04-28 13:54 | 37.51033 | 14.66973 | 5315 ft | 238 kts | 123° |
| 2026-04-28 13:55 | 37.50156 | 14.68693 | 5222 ft | 230 kts | 122° |
| 2026-04-28 13:55 | 37.49308 | 14.70372 | 5014 ft | 227 kts | 123° |
| 2026-04-28 13:55 | 37.48447 | 14.72048 | 4759 ft | 227 kts | 123° |
| 2026-04-28 13:55 | 37.47587 | 14.73706 | 4535 ft | 225 kts | 123° |
| 2026-04-28 13:56 | 37.46728 | 14.75343 | 4299 ft | 224 kts | 123° |
| 2026-04-28 13:56 | 37.45871 | 14.76970 | 3992 ft | 222 kts | 123° |
| 2026-04-28 13:56 | 37.45028 | 14.78570 | 3639 ft | 217 kts | 124° |
| 2026-04-28 13:56 | 37.44339 | 14.80248 | 3159 ft | 217 kts | 99° |
| 2026-04-28 13:57 | 37.44539 | 14.82044 | 3049 ft | 201 kts | 72° |
| 2026-04-28 13:57 | 37.44783 | 14.83698 | 2983 ft | 188 kts | 90° |
| 2026-04-28 13:57 | 37.44867 | 14.85335 | 2986 ft | 189 kts | 83° |
| 2026-04-28 13:57 | 37.45036 | 14.86980 | 2886 ft | 190 kts | 84° |
| 2026-04-28 13:58 | 37.45183 | 14.88623 | 2654 ft | 189 kts | 84° |
| 2026-04-28 13:58 | 37.45319 | 14.90259 | 2411 ft | 186 kts | 84° |
| 2026-04-28 13:58 | 37.45449 | 14.91863 | 2149 ft | 181 kts | 84° |
| 2026-04-28 13:58 | 37.45575 | 14.93398 | 1944 ft | 173 kts | 84° |
| 2026-04-28 13:59 | 37.45699 | 14.94869 | 1710 ft | 164 kts | 83° |
| 2026-04-28 13:59 | 37.45811 | 14.96222 | 1496 ft | 150 kts | 83° |
| 2026-04-28 13:59 | 37.45917 | 14.97484 | 1272 ft | 142 kts | 82° |
| 2026-04-28 13:59 | 37.46018 | 14.98712 | 1079 ft | 140 kts | 83° |
| 2026-04-28 14:00 | 37.46116 | 14.99940 | 914 ft | 142 kts | 83° |
| 2026-04-28 14:00 | 37.46225 | 15.01170 | 722 ft | 142 kts | 83° |
| 2026-04-28 14:00 | 37.46332 | 15.02406 | 533 ft | 142 kts | 82° |
| 2026-04-28 14:00 | 37.46428 | 15.03639 | 365 ft | 141 kts | 84° |
| 2026-04-28 14:01 | 37.46528 | 15.04862 | 171 ft | 141 kts | 83° |
| 2026-04-28 14:01 | 37.46631 | 15.06079 | 40 ft | 134 kts | 83° |
| 2026-04-28 14:01 | 37.46713 | 15.07059 | 35 ft | 83 kts | 84° |
| 2026-04-28 14:01 | 37.46759 | 15.07527 | 35 ft | 35 kts | 76° |
| 2026-04-28 14:02 | 37.46826 | 15.07725 | 33 ft | 21 kts | 56° |
| 2026-04-28 14:02 | 37.46932 | 15.07792 | 32 ft | 18 kts | 313° |
| 2026-04-28 14:02 | 37.46930 | 15.07649 | 32 ft | 16 kts | 263° |
| 2026-04-28 14:02 | 37.46918 | 15.07511 | 30 ft | 16 kts | 263° |
| 2026-04-28 14:03 | 37.46906 | 15.07378 | 31 ft | 15 kts | 263° |
| 2026-04-28 14:03 | 37.46895 | 15.07250 | 31 ft | 14 kts | 264° |
| 2026-04-28 14:03 | 37.46884 | 15.07128 | 31 ft | 14 kts | 263° |
| 2026-04-28 14:03 | 37.46874 | 15.07012 | 31 ft | 13 kts | 265° |
| 2026-04-28 14:04 | 37.46865 | 15.06900 | 31 ft | 13 kts | 263° |
| 2026-04-28 14:04 | 37.46857 | 15.06790 | 31 ft | 12 kts | 264° |
| 2026-04-28 14:04 | 37.46847 | 15.06686 | 31 ft | 12 kts | 263° |
| 2026-04-28 14:04 | 37.46838 | 15.06603 | 31 ft | 6 kts | 263° |
| 2026-04-28 14:05 | 37.46850 | 15.06552 | 31 ft | 6 kts | 301° |
| 2026-04-28 14:05 | 37.46872 | 15.06508 | 31 ft | 6 kts | 307° |
| 2026-04-28 14:05 | 37.46902 | 15.06507 | 31 ft | 4 kts | 19° |
| 2026-04-28 14:05 | 37.46931 | 15.06520 | 30 ft | 4 kts | 19° |
| 2026-04-28 14:06 | 37.46945 | 15.06526 | 30 ft | 0 kts | 19° |